sensor_id;sensor_type;location;lat;lon;timestamp;P1;durP1;ratioP1;P2;durP2;ratioP2
9142;SDS011;54072;47.410;8.446;2023-05-27T00:00:06;8.00;;;6.37;;
9142;SDS011;54072;47.410;8.446;2023-05-27T00:02:34;8.00;;;5.80;;
9142;SDS011;54072;47.410;8.446;2023-05-27T00:05:04;8.67;;;6.23;;
9142;SDS011;54072;47.410;8.446;2023-05-27T00:07:32;9.40;;;6.30;;
9142;SDS011;54072;47.410;8.446;2023-05-27T00:09:59;8.47;;;6.70;;
9142;SDS011;54072;47.410;8.446;2023-05-27T00:12:27;9.70;;;6.50;;
9142;SDS011;54072;47.410;8.446;2023-05-27T00:14:55;8.37;;;6.13;;
9142;SDS011;54072;47.410;8.446;2023-05-27T00:17:22;8.13;;;6.40;;
9142;SDS011;54072;47.410;8.446;2023-05-27T00:19:51;8.37;;;5.93;;
9142;SDS011;54072;47.410;8.446;2023-05-27T00:22:21;7.90;;;6.00;;
9142;SDS011;54072;47.410;8.446;2023-05-27T00:24:49;7.10;;;5.93;;
9142;SDS011;54072;47.410;8.446;2023-05-27T00:27:16;8.37;;;5.90;;
9142;SDS011;54072;47.410;8.446;2023-05-27T00:29:44;8.97;;;6.33;;
9142;SDS011;54072;47.410;8.446;2023-05-27T00:32:11;8.87;;;6.17;;
9142;SDS011;54072;47.410;8.446;2023-05-27T00:34:39;7.47;;;5.80;;
9142;SDS011;54072;47.410;8.446;2023-05-27T00:37:06;8.37;;;5.70;;
9142;SDS011;54072;47.410;8.446;2023-05-27T00:39:35;10.07;;;6.00;;
9142;SDS011;54072;47.410;8.446;2023-05-27T00:42:03;8.60;;;5.93;;
9142;SDS011;54072;47.410;8.446;2023-05-27T00:44:32;8.60;;;6.17;;
9142;SDS011;54072;47.410;8.446;2023-05-27T00:46:59;7.00;;;6.30;;
9142;SDS011;54072;47.410;8.446;2023-05-27T00:49:27;6.77;;;5.50;;
9142;SDS011;54072;47.410;8.446;2023-05-27T00:51:54;8.73;;;6.10;;
9142;SDS011;54072;47.410;8.446;2023-05-27T00:54:22;10.60;;;5.97;;
9142;SDS011;54072;47.410;8.446;2023-05-27T00:56:51;9.47;;;6.00;;
9142;SDS011;54072;47.410;8.446;2023-05-27T00:59:19;9.17;;;5.97;;
9142;SDS011;54072;47.410;8.446;2023-05-27T01:01:46;10.40;;;6.03;;
9142;SDS011;54072;47.410;8.446;2023-05-27T01:04:15;8.53;;;6.03;;
9142;SDS011;54072;47.410;8.446;2023-05-27T01:06:50;6.07;;;5.43;;
9142;SDS011;54072;47.410;8.446;2023-05-27T01:09:22;8.03;;;5.70;;
9142;SDS011;54072;47.410;8.446;2023-05-27T01:11:56;9.87;;;6.07;;
9142;SDS011;54072;47.410;8.446;2023-05-27T01:14:26;6.90;;;5.90;;
9142;SDS011;54072;47.410;8.446;2023-05-27T01:16:54;8.03;;;5.73;;
9142;SDS011;54072;47.410;8.446;2023-05-27T01:19:26;8.13;;;5.83;;
9142;SDS011;54072;47.410;8.446;2023-05-27T01:21:56;8.60;;;5.80;;
9142;SDS011;54072;47.410;8.446;2023-05-27T01:24:25;8.17;;;5.70;;
9142;SDS011;54072;47.410;8.446;2023-05-27T01:26:53;8.03;;;5.87;;
9142;SDS011;54072;47.410;8.446;2023-05-27T01:29:22;14.20;;;5.97;;
9142;SDS011;54072;47.410;8.446;2023-05-27T01:31:51;8.13;;;6.37;;
9142;SDS011;54072;47.410;8.446;2023-05-27T01:34:23;10.50;;;6.03;;
9142;SDS011;54072;47.410;8.446;2023-05-27T01:36:53;6.63;;;5.73;;
9142;SDS011;54072;47.410;8.446;2023-05-27T01:39:26;7.87;;;5.73;;
9142;SDS011;54072;47.410;8.446;2023-05-27T01:41:54;10.20;;;6.33;;
9142;SDS011;54072;47.410;8.446;2023-05-27T01:44:22;7.73;;;5.60;;
9142;SDS011;54072;47.410;8.446;2023-05-27T01:46:50;9.70;;;5.90;;
9142;SDS011;54072;47.410;8.446;2023-05-27T01:49:17;8.63;;;5.60;;
9142;SDS011;54072;47.410;8.446;2023-05-27T01:51:45;7.30;;;5.47;;
9142;SDS011;54072;47.410;8.446;2023-05-27T01:54:13;7.70;;;6.17;;
9142;SDS011;54072;47.410;8.446;2023-05-27T01:56:41;9.27;;;5.97;;
9142;SDS011;54072;47.410;8.446;2023-05-27T01:59:09;9.23;;;6.17;;
9142;SDS011;54072;47.410;8.446;2023-05-27T02:01:37;7.00;;;5.50;;
9142;SDS011;54072;47.410;8.446;2023-05-27T02:04:05;7.10;;;5.73;;
9142;SDS011;54072;47.410;8.446;2023-05-27T02:06:32;8.57;;;6.40;;
9142;SDS011;54072;47.410;8.446;2023-05-27T02:09:00;9.87;;;6.10;;
9142;SDS011;54072;47.410;8.446;2023-05-27T02:11:27;7.70;;;5.63;;
9142;SDS011;54072;47.410;8.446;2023-05-27T02:13:56;8.53;;;5.67;;
9142;SDS011;54072;47.410;8.446;2023-05-27T02:16:25;8.10;;;5.87;;
9142;SDS011;54072;47.410;8.446;2023-05-27T02:18:53;8.73;;;5.97;;
9142;SDS011;54072;47.410;8.446;2023-05-27T02:21:20;10.30;;;6.10;;
9142;SDS011;54072;47.410;8.446;2023-05-27T02:23:48;7.30;;;5.70;;
9142;SDS011;54072;47.410;8.446;2023-05-27T02:26:16;7.03;;;5.80;;
9142;SDS011;54072;47.410;8.446;2023-05-27T02:28:44;9.03;;;5.40;;
9142;SDS011;54072;47.410;8.446;2023-05-27T02:31:12;9.63;;;6.00;;
9142;SDS011;54072;47.410;8.446;2023-05-27T02:33:40;6.73;;;5.80;;
9142;SDS011;54072;47.410;8.446;2023-05-27T02:36:08;7.20;;;5.70;;
9142;SDS011;54072;47.410;8.446;2023-05-27T02:38:36;8.83;;;6.20;;
9142;SDS011;54072;47.410;8.446;2023-05-27T02:41:04;10.30;;;6.17;;
9142;SDS011;54072;47.410;8.446;2023-05-27T02:43:32;9.57;;;6.20;;
9142;SDS011;54072;47.410;8.446;2023-05-27T02:45:59;6.63;;;5.33;;
9142;SDS011;54072;47.410;8.446;2023-05-27T02:48:28;9.43;;;6.07;;
9142;SDS011;54072;47.410;8.446;2023-05-27T02:50:56;9.57;;;5.47;;
9142;SDS011;54072;47.410;8.446;2023-05-27T02:53:23;9.70;;;6.27;;
9142;SDS011;54072;47.410;8.446;2023-05-27T02:55:51;9.50;;;5.70;;
9142;SDS011;54072;47.410;8.446;2023-05-27T02:58:19;8.73;;;5.53;;
9142;SDS011;54072;47.410;8.446;2023-05-27T03:00:46;7.40;;;5.83;;
9142;SDS011;54072;47.410;8.446;2023-05-27T03:03:14;7.77;;;6.00;;
9142;SDS011;54072;47.410;8.446;2023-05-27T03:05:43;10.07;;;5.77;;
9142;SDS011;54072;47.410;8.446;2023-05-27T03:08:10;9.47;;;5.57;;
9142;SDS011;54072;47.410;8.446;2023-05-27T03:10:38;8.73;;;5.63;;
9142;SDS011;54072;47.410;8.446;2023-05-27T03:13:05;8.07;;;5.60;;
9142;SDS011;54072;47.410;8.446;2023-05-27T03:15:33;11.13;;;5.90;;
9142;SDS011;54072;47.410;8.446;2023-05-27T03:18:01;7.03;;;5.30;;
9142;SDS011;54072;47.410;8.446;2023-05-27T03:20:29;6.73;;;5.10;;
9142;SDS011;54072;47.410;8.446;2023-05-27T03:22:58;10.60;;;5.90;;
9142;SDS011;54072;47.410;8.446;2023-05-27T03:25:26;7.57;;;5.57;;
9142;SDS011;54072;47.410;8.446;2023-05-27T03:27:55;6.90;;;5.00;;
9142;SDS011;54072;47.410;8.446;2023-05-27T03:30:22;5.97;;;4.57;;
9142;SDS011;54072;47.410;8.446;2023-05-27T03:32:50;8.30;;;5.50;;
9142;SDS011;54072;47.410;8.446;2023-05-27T03:35:18;8.23;;;5.40;;
9142;SDS011;54072;47.410;8.446;2023-05-27T03:37:45;7.17;;;4.93;;
9142;SDS011;54072;47.410;8.446;2023-05-27T03:40:14;10.37;;;5.63;;
9142;SDS011;54072;47.410;8.446;2023-05-27T03:42:42;10.33;;;5.47;;
9142;SDS011;54072;47.410;8.446;2023-05-27T03:45:09;13.77;;;5.80;;
9142;SDS011;54072;47.410;8.446;2023-05-27T03:47:37;9.47;;;4.93;;
9142;SDS011;54072;47.410;8.446;2023-05-27T03:50:05;7.47;;;5.03;;
9142;SDS011;54072;47.410;8.446;2023-05-27T03:52:32;9.63;;;4.77;;
9142;SDS011;54072;47.410;8.446;2023-05-27T03:55:00;8.03;;;5.27;;
9142;SDS011;54072;47.410;8.446;2023-05-27T03:57:29;7.10;;;5.40;;
9142;SDS011;54072;47.410;8.446;2023-05-27T03:59:56;7.97;;;5.27;;
9142;SDS011;54072;47.410;8.446;2023-05-27T04:02:24;7.97;;;5.40;;
9142;SDS011;54072;47.410;8.446;2023-05-27T04:04:51;8.00;;;5.23;;
9142;SDS011;54072;47.410;8.446;2023-05-27T04:07:20;6.63;;;4.90;;
9142;SDS011;54072;47.410;8.446;2023-05-27T04:09:52;7.30;;;4.80;;
9142;SDS011;54072;47.410;8.446;2023-05-27T04:12:20;9.60;;;5.20;;
9142;SDS011;54072;47.410;8.446;2023-05-27T04:14:49;10.00;;;5.43;;
9142;SDS011;54072;47.410;8.446;2023-05-27T04:17:16;8.27;;;5.40;;
9142;SDS011;54072;47.410;8.446;2023-05-27T04:19:44;9.40;;;5.40;;
9142;SDS011;54072;47.410;8.446;2023-05-27T04:22:15;9.33;;;5.50;;
9142;SDS011;54072;47.410;8.446;2023-05-27T04:24:42;10.23;;;4.83;;
9142;SDS011;54072;47.410;8.446;2023-05-27T04:27:10;9.33;;;4.93;;
9142;SDS011;54072;47.410;8.446;2023-05-27T04:29:39;7.93;;;5.30;;
9142;SDS011;54072;47.410;8.446;2023-05-27T04:32:10;10.57;;;5.13;;
9142;SDS011;54072;47.410;8.446;2023-05-27T04:34:38;8.97;;;4.93;;
9142;SDS011;54072;47.410;8.446;2023-05-27T04:37:08;8.10;;;5.53;;
9142;SDS011;54072;47.410;8.446;2023-05-27T04:39:36;6.83;;;5.33;;
9142;SDS011;54072;47.410;8.446;2023-05-27T04:42:07;9.03;;;4.83;;
9142;SDS011;54072;47.410;8.446;2023-05-27T04:44:35;10.67;;;5.20;;
9142;SDS011;54072;47.410;8.446;2023-05-27T04:47:02;8.30;;;5.10;;
9142;SDS011;54072;47.410;8.446;2023-05-27T04:49:31;7.83;;;5.10;;
9142;SDS011;54072;47.410;8.446;2023-05-27T04:52:01;8.50;;;4.97;;
9142;SDS011;54072;47.410;8.446;2023-05-27T04:54:28;6.87;;;5.03;;
9142;SDS011;54072;47.410;8.446;2023-05-27T04:56:56;7.33;;;5.00;;
9142;SDS011;54072;47.410;8.446;2023-05-27T04:59:24;11.17;;;5.40;;
9142;SDS011;54072;47.410;8.446;2023-05-27T05:02:01;6.37;;;4.43;;
9142;SDS011;54072;47.410;8.446;2023-05-27T05:04:38;11.47;;;4.83;;
9142;SDS011;54072;47.410;8.446;2023-05-27T05:07:07;6.03;;;4.67;;
9142;SDS011;54072;47.410;8.446;2023-05-27T05:09:34;8.27;;;4.97;;
9142;SDS011;54072;47.410;8.446;2023-05-27T05:12:02;9.43;;;4.70;;
9142;SDS011;54072;47.410;8.446;2023-05-27T05:14:31;8.80;;;4.80;;
9142;SDS011;54072;47.410;8.446;2023-05-27T05:16:58;8.10;;;5.00;;
9142;SDS011;54072;47.410;8.446;2023-05-27T05:19:26;9.10;;;5.27;;
9142;SDS011;54072;47.410;8.446;2023-05-27T05:21:55;11.73;;;5.23;;
9142;SDS011;54072;47.410;8.446;2023-05-27T05:24:22;8.23;;;5.03;;
9142;SDS011;54072;47.410;8.446;2023-05-27T05:26:50;7.87;;;4.90;;
9142;SDS011;54072;47.410;8.446;2023-05-27T05:29:17;6.93;;;4.63;;
9142;SDS011;54072;47.410;8.446;2023-05-27T05:31:45;10.13;;;5.07;;
9142;SDS011;54072;47.410;8.446;2023-05-27T05:34:12;7.97;;;5.10;;
9142;SDS011;54072;47.410;8.446;2023-05-27T05:36:40;9.47;;;4.93;;
9142;SDS011;54072;47.410;8.446;2023-05-27T05:39:10;8.93;;;5.27;;
9142;SDS011;54072;47.410;8.446;2023-05-27T05:41:37;14.97;;;4.87;;
9142;SDS011;54072;47.410;8.446;2023-05-27T05:44:05;8.50;;;4.63;;
9142;SDS011;54072;47.410;8.446;2023-05-27T05:46:32;8.13;;;4.90;;
9142;SDS011;54072;47.410;8.446;2023-05-27T05:49:00;7.10;;;5.17;;
9142;SDS011;54072;47.410;8.446;2023-05-27T05:51:27;8.47;;;4.57;;
9142;SDS011;54072;47.410;8.446;2023-05-27T05:53:55;7.17;;;4.80;;
9142;SDS011;54072;47.410;8.446;2023-05-27T05:56:24;7.43;;;4.60;;
9142;SDS011;54072;47.410;8.446;2023-05-27T05:58:52;8.60;;;4.83;;
9142;SDS011;54072;47.410;8.446;2023-05-27T06:01:19;7.03;;;4.83;;
9142;SDS011;54072;47.410;8.446;2023-05-27T06:03:47;8.00;;;5.17;;
9142;SDS011;54072;47.410;8.446;2023-05-27T06:06:14;8.03;;;5.00;;
9142;SDS011;54072;47.410;8.446;2023-05-27T06:08:42;7.63;;;5.10;;
9142;SDS011;54072;47.410;8.446;2023-05-27T06:11:09;6.90;;;4.97;;
9142;SDS011;54072;47.410;8.446;2023-05-27T06:13:39;7.47;;;5.40;;
9142;SDS011;54072;47.410;8.446;2023-05-27T06:16:07;6.77;;;4.70;;
9142;SDS011;54072;47.410;8.446;2023-05-27T06:18:34;9.13;;;5.13;;
9142;SDS011;54072;47.410;8.446;2023-05-27T06:21:02;7.23;;;5.17;;
9142;SDS011;54072;47.410;8.446;2023-05-27T06:23:30;10.77;;;5.57;;
9142;SDS011;54072;47.410;8.446;2023-05-27T06:25:57;11.00;;;5.90;;
9142;SDS011;54072;47.410;8.446;2023-05-27T06:28:25;8.57;;;5.10;;
9142;SDS011;54072;47.410;8.446;2023-05-27T06:30:54;8.83;;;5.33;;
9142;SDS011;54072;47.410;8.446;2023-05-27T06:33:22;6.93;;;4.90;;
9142;SDS011;54072;47.410;8.446;2023-05-27T06:35:49;6.97;;;5.10;;
9142;SDS011;54072;47.410;8.446;2023-05-27T06:38:17;9.10;;;5.10;;
9142;SDS011;54072;47.410;8.446;2023-05-27T06:40:44;9.83;;;5.53;;
9142;SDS011;54072;47.410;8.446;2023-05-27T06:43:12;7.60;;;5.10;;
9142;SDS011;54072;47.410;8.446;2023-05-27T06:45:39;10.10;;;5.57;;
9142;SDS011;54072;47.410;8.446;2023-05-27T06:48:15;8.10;;;5.23;;
9142;SDS011;54072;47.410;8.446;2023-05-27T06:50:43;11.17;;;5.57;;
9142;SDS011;54072;47.410;8.446;2023-05-27T06:53:10;10.03;;;5.60;;
9142;SDS011;54072;47.410;8.446;2023-05-27T06:55:39;10.77;;;5.40;;
9142;SDS011;54072;47.410;8.446;2023-05-27T06:58:06;9.40;;;5.83;;
9142;SDS011;54072;47.410;8.446;2023-05-27T07:00:34;8.57;;;5.43;;
9142;SDS011;54072;47.410;8.446;2023-05-27T07:03:01;7.53;;;5.50;;
9142;SDS011;54072;47.410;8.446;2023-05-27T07:05:30;7.93;;;5.53;;
9142;SDS011;54072;47.410;8.446;2023-05-27T07:07:58;9.07;;;5.77;;
9142;SDS011;54072;47.410;8.446;2023-05-27T07:10:26;7.00;;;5.83;;
9142;SDS011;54072;47.410;8.446;2023-05-27T07:12:53;8.33;;;5.70;;
9142;SDS011;54072;47.410;8.446;2023-05-27T07:15:21;8.33;;;5.70;;
9142;SDS011;54072;47.410;8.446;2023-05-27T07:17:48;7.20;;;5.67;;
9142;SDS011;54072;47.410;8.446;2023-05-27T07:20:16;8.47;;;5.60;;
9142;SDS011;54072;47.410;8.446;2023-05-27T07:22:45;8.17;;;5.60;;
9142;SDS011;54072;47.410;8.446;2023-05-27T07:25:12;10.87;;;5.97;;
9142;SDS011;54072;47.410;8.446;2023-05-27T07:27:40;9.17;;;6.23;;
9142;SDS011;54072;47.410;8.446;2023-05-27T07:30:08;9.07;;;6.03;;
9142;SDS011;54072;47.410;8.446;2023-05-27T07:32:36;7.33;;;5.70;;
9142;SDS011;54072;47.410;8.446;2023-05-27T07:35:04;7.60;;;5.50;;
9142;SDS011;54072;47.410;8.446;2023-05-27T07:37:32;10.73;;;6.72;;
9142;SDS011;54072;47.410;8.446;2023-05-27T07:40:01;8.77;;;5.95;;
9142;SDS011;54072;47.410;8.446;2023-05-27T07:42:30;7.05;;;6.28;;
9142;SDS011;54072;47.410;8.446;2023-05-27T07:44:59;8.25;;;6.35;;
9142;SDS011;54072;47.410;8.446;2023-05-27T07:47:26;9.63;;;6.50;;
9142;SDS011;54072;47.410;8.446;2023-05-27T07:49:54;9.23;;;6.10;;
9142;SDS011;54072;47.410;8.446;2023-05-27T07:52:21;8.13;;;6.63;;
9142;SDS011;54072;47.410;8.446;2023-05-27T07:54:49;7.50;;;6.50;;
9142;SDS011;54072;47.410;8.446;2023-05-27T07:57:21;7.95;;;6.57;;
9142;SDS011;54072;47.410;8.446;2023-05-27T07:59:49;9.68;;;6.63;;
9142;SDS011;54072;47.410;8.446;2023-05-27T08:02:16;9.00;;;6.50;;
9142;SDS011;54072;47.410;8.446;2023-05-27T08:04:44;8.93;;;6.82;;
9142;SDS011;54072;47.410;8.446;2023-05-27T08:07:11;7.35;;;6.63;;
9142;SDS011;54072;47.410;8.446;2023-05-27T08:09:39;9.95;;;6.85;;
9142;SDS011;54072;47.410;8.446;2023-05-27T08:12:07;9.15;;;6.47;;
9142;SDS011;54072;47.410;8.446;2023-05-27T08:14:35;10.27;;;7.00;;
9142;SDS011;54072;47.410;8.446;2023-05-27T08:17:03;8.90;;;6.82;;
9142;SDS011;54072;47.410;8.446;2023-05-27T08:19:32;9.50;;;7.00;;
9142;SDS011;54072;47.410;8.446;2023-05-27T08:21:59;9.07;;;6.82;;
9142;SDS011;54072;47.410;8.446;2023-05-27T08:24:29;8.27;;;6.88;;
9142;SDS011;54072;47.410;8.446;2023-05-27T08:26:58;9.70;;;7.07;;
9142;SDS011;54072;47.410;8.446;2023-05-27T08:29:26;10.18;;;7.55;;
9142;SDS011;54072;47.410;8.446;2023-05-27T08:31:55;10.48;;;7.07;;
9142;SDS011;54072;47.410;8.446;2023-05-27T08:34:23;8.98;;;6.65;;
9142;SDS011;54072;47.410;8.446;2023-05-27T08:36:52;14.77;;;7.55;;
9142;SDS011;54072;47.410;8.446;2023-05-27T08:39:19;11.13;;;7.47;;
9142;SDS011;54072;47.410;8.446;2023-05-27T08:41:47;11.98;;;7.57;;
9142;SDS011;54072;47.410;8.446;2023-05-27T08:44:15;10.07;;;7.45;;
9142;SDS011;54072;47.410;8.446;2023-05-27T08:46:46;11.40;;;7.68;;
9142;SDS011;54072;47.410;8.446;2023-05-27T08:49:16;10.10;;;7.05;;
9142;SDS011;54072;47.410;8.446;2023-05-27T08:51:44;10.85;;;7.32;;
9142;SDS011;54072;47.410;8.446;2023-05-27T08:54:12;11.68;;;7.22;;
9142;SDS011;54072;47.410;8.446;2023-05-27T08:56:39;9.45;;;7.18;;
9142;SDS011;54072;47.410;8.446;2023-05-27T08:59:07;9.93;;;7.07;;
9142;SDS011;54072;47.410;8.446;2023-05-27T09:01:35;9.00;;;7.28;;
9142;SDS011;54072;47.410;8.446;2023-05-27T09:04:03;11.05;;;7.50;;
9142;SDS011;54072;47.410;8.446;2023-05-27T09:06:31;11.23;;;7.25;;
9142;SDS011;54072;47.410;8.446;2023-05-27T09:09:00;10.52;;;7.47;;
9142;SDS011;54072;47.410;8.446;2023-05-27T09:11:27;9.73;;;7.93;;
9142;SDS011;54072;47.410;8.446;2023-05-27T09:13:57;10.68;;;8.02;;
9142;SDS011;54072;47.410;8.446;2023-05-27T09:16:24;10.15;;;7.60;;
9142;SDS011;54072;47.410;8.446;2023-05-27T09:18:52;10.77;;;7.65;;
9142;SDS011;54072;47.410;8.446;2023-05-27T09:21:20;10.00;;;8.02;;
9142;SDS011;54072;47.410;8.446;2023-05-27T09:23:49;10.02;;;7.63;;
9142;SDS011;54072;47.410;8.446;2023-05-27T09:26:16;9.05;;;7.63;;
9142;SDS011;54072;47.410;8.446;2023-05-27T09:28:44;9.88;;;7.15;;
9142;SDS011;54072;47.410;8.446;2023-05-27T09:31:12;8.05;;;7.13;;
9142;SDS011;54072;47.410;8.446;2023-05-27T09:33:39;7.63;;;6.82;;
9142;SDS011;54072;47.410;8.446;2023-05-27T09:36:07;12.70;;;7.80;;
9142;SDS011;54072;47.410;8.446;2023-05-27T09:38:35;9.43;;;6.85;;
9142;SDS011;54072;47.410;8.446;2023-05-27T09:41:04;9.35;;;7.30;;
9142;SDS011;54072;47.410;8.446;2023-05-27T09:43:32;8.98;;;7.70;;
9142;SDS011;54072;47.410;8.446;2023-05-27T09:46:00;7.47;;;6.70;;
9142;SDS011;54072;47.410;8.446;2023-05-27T09:48:28;8.52;;;6.80;;
9142;SDS011;54072;47.410;8.446;2023-05-27T09:50:56;10.95;;;7.15;;
9142;SDS011;54072;47.410;8.446;2023-05-27T09:53:25;9.40;;;7.18;;
9142;SDS011;54072;47.410;8.446;2023-05-27T09:55:53;8.65;;;6.80;;
9142;SDS011;54072;47.410;8.446;2023-05-27T09:58:22;8.90;;;6.47;;
9142;SDS011;54072;47.410;8.446;2023-05-27T10:00:50;8.10;;;7.13;;
9142;SDS011;54072;47.410;8.446;2023-05-27T10:03:20;11.43;;;7.25;;
9142;SDS011;54072;47.410;8.446;2023-05-27T10:05:48;8.45;;;7.35;;
9142;SDS011;54072;47.410;8.446;2023-05-27T10:08:18;8.50;;;7.60;;
9142;SDS011;54072;47.410;8.446;2023-05-27T10:10:48;8.68;;;7.28;;
9142;SDS011;54072;47.410;8.446;2023-05-27T10:13:17;7.80;;;6.88;;
9142;SDS011;54072;47.410;8.446;2023-05-27T10:15:48;8.07;;;7.03;;
9142;SDS011;54072;47.410;8.446;2023-05-27T10:18:25;9.27;;;6.88;;
9142;SDS011;54072;47.410;8.446;2023-05-27T10:20:53;8.50;;;7.30;;
9142;SDS011;54072;47.410;8.446;2023-05-27T10:23:21;8.82;;;7.63;;
9142;SDS011;54072;47.410;8.446;2023-05-27T10:25:51;9.10;;;6.88;;
9142;SDS011;54072;47.410;8.446;2023-05-27T10:28:25;8.18;;;7.30;;
9142;SDS011;54072;47.410;8.446;2023-05-27T10:31:02;8.90;;;7.35;;
9142;SDS011;54072;47.410;8.446;2023-05-27T10:33:33;9.35;;;7.22;;
9142;SDS011;54072;47.410;8.446;2023-05-27T10:36:04;8.30;;;7.10;;
9142;SDS011;54072;47.410;8.446;2023-05-27T10:38:33;10.85;;;7.70;;
9142;SDS011;54072;47.410;8.446;2023-05-27T10:41:02;8.38;;;7.30;;
9142;SDS011;54072;47.410;8.446;2023-05-27T10:43:30;8.10;;;7.03;;
9142;SDS011;54072;47.410;8.446;2023-05-27T10:46:04;8.85;;;7.32;;
9142;SDS011;54072;47.410;8.446;2023-05-27T10:48:32;7.97;;;7.20;;
9142;SDS011;54072;47.410;8.446;2023-05-27T10:51:00;10.07;;;7.65;;
9142;SDS011;54072;47.410;8.446;2023-05-27T10:53:28;10.65;;;7.40;;
9142;SDS011;54072;47.410;8.446;2023-05-27T10:55:57;8.82;;;7.93;;
9142;SDS011;54072;47.410;8.446;2023-05-27T10:58:25;8.75;;;7.22;;
9142;SDS011;54072;47.410;8.446;2023-05-27T11:00:53;9.57;;;7.15;;
9142;SDS011;54072;47.410;8.446;2023-05-27T11:03:22;8.18;;;7.18;;
9142;SDS011;54072;47.410;8.446;2023-05-27T11:05:57;9.25;;;7.35;;
9142;SDS011;54072;47.410;8.446;2023-05-27T11:08:25;10.93;;;7.60;;
9142;SDS011;54072;47.410;8.446;2023-05-27T11:10:57;9.18;;;7.40;;
9142;SDS011;54072;47.410;8.446;2023-05-27T11:13:29;9.75;;;6.80;;
9142;SDS011;54072;47.410;8.446;2023-05-27T11:15:56;8.55;;;7.53;;
9142;SDS011;54072;47.410;8.446;2023-05-27T11:18:33;9.43;;;7.72;;
9142;SDS011;54072;47.410;8.446;2023-05-27T11:21:01;10.18;;;7.10;;
9142;SDS011;54072;47.410;8.446;2023-05-27T11:23:34;10.40;;;7.75;;
9142;SDS011;54072;47.410;8.446;2023-05-27T11:26:02;7.35;;;6.60;;
9142;SDS011;54072;47.410;8.446;2023-05-27T11:28:29;9.63;;;6.75;;
9142;SDS011;54072;47.410;8.446;2023-05-27T11:30:58;8.50;;;7.53;;
9142;SDS011;54072;47.410;8.446;2023-05-27T11:33:31;8.65;;;6.95;;
9142;SDS011;54072;47.410;8.446;2023-05-27T11:36:05;9.77;;;7.30;;
9142;SDS011;54072;47.410;8.446;2023-05-27T11:38:44;9.75;;;8.02;;
9142;SDS011;54072;47.410;8.446;2023-05-27T11:41:13;12.15;;;8.10;;
9142;SDS011;54072;47.410;8.446;2023-05-27T11:43:46;9.32;;;7.65;;
9142;SDS011;54072;47.410;8.446;2023-05-27T11:46:14;9.00;;;6.78;;
9142;SDS011;54072;47.410;8.446;2023-05-27T11:48:43;7.57;;;6.60;;
9142;SDS011;54072;47.410;8.446;2023-05-27T11:51:11;9.77;;;7.03;;
9142;SDS011;54072;47.410;8.446;2023-05-27T11:53:39;9.07;;;6.47;;
9142;SDS011;54072;47.410;8.446;2023-05-27T11:56:07;8.70;;;6.93;;
9142;SDS011;54072;47.410;8.446;2023-05-27T11:58:34;9.07;;;6.70;;
9142;SDS011;54072;47.410;8.446;2023-05-27T12:01:03;7.85;;;7.05;;
9142;SDS011;54072;47.410;8.446;2023-05-27T12:03:32;10.25;;;7.28;;
9142;SDS011;54072;47.410;8.446;2023-05-27T12:06:02;6.95;;;6.35;;
9142;SDS011;54072;47.410;8.446;2023-05-27T12:08:29;7.53;;;6.68;;
9142;SDS011;54072;47.410;8.446;2023-05-27T12:10:57;10.05;;;6.82;;
9142;SDS011;54072;47.410;8.446;2023-05-27T12:13:24;7.15;;;6.55;;
9142;SDS011;54072;47.410;8.446;2023-05-27T12:15:52;8.48;;;7.63;;
9142;SDS011;54072;47.410;8.446;2023-05-27T12:18:20;8.20;;;6.30;;
9142;SDS011;54072;47.410;8.446;2023-05-27T12:20:48;7.93;;;6.55;;
9142;SDS011;54072;47.410;8.446;2023-05-27T12:23:17;7.97;;;6.55;;
9142;SDS011;54072;47.410;8.446;2023-05-27T12:25:44;10.35;;;6.90;;
9142;SDS011;54072;47.410;8.446;2023-05-27T12:28:12;9.00;;;6.45;;
9142;SDS011;54072;47.410;8.446;2023-05-27T12:30:39;8.43;;;6.88;;
9142;SDS011;54072;47.410;8.446;2023-05-27T12:33:07;8.05;;;6.78;;
9142;SDS011;54072;47.410;8.446;2023-05-27T12:35:35;8.40;;;6.93;;
9142;SDS011;54072;47.410;8.446;2023-05-27T12:38:02;6.82;;;6.05;;
9142;SDS011;54072;47.410;8.446;2023-05-27T12:40:31;7.20;;;6.45;;
9142;SDS011;54072;47.410;8.446;2023-05-27T12:42:59;10.38;;;6.90;;
9142;SDS011;54072;47.410;8.446;2023-05-27T12:45:30;7.55;;;6.80;;
9142;SDS011;54072;47.410;8.446;2023-05-27T12:47:58;11.63;;;6.82;;
9142;SDS011;54072;47.410;8.446;2023-05-27T12:50:25;7.32;;;6.63;;
9142;SDS011;54072;47.410;8.446;2023-05-27T12:52:53;8.48;;;7.05;;
9142;SDS011;54072;47.410;8.446;2023-05-27T12:55:20;7.57;;;6.70;;
9142;SDS011;54072;47.410;8.446;2023-05-27T12:57:50;7.82;;;7.03;;
9142;SDS011;54072;47.410;8.446;2023-05-27T13:00:18;7.90;;;7.10;;
9142;SDS011;54072;47.410;8.446;2023-05-27T13:02:46;7.78;;;6.97;;
9142;SDS011;54072;47.410;8.446;2023-05-27T13:05:14;7.57;;;6.30;;
9142;SDS011;54072;47.410;8.446;2023-05-27T13:07:52;7.00;;;6.30;;
9142;SDS011;54072;47.410;8.446;2023-05-27T13:10:20;8.57;;;6.95;;
9142;SDS011;54072;47.410;8.446;2023-05-27T13:12:47;7.30;;;6.60;;
9142;SDS011;54072;47.410;8.446;2023-05-27T13:15:17;8.73;;;7.25;;
9142;SDS011;54072;47.410;8.446;2023-05-27T13:17:45;7.80;;;6.93;;
9142;SDS011;54072;47.410;8.446;2023-05-27T13:20:13;9.23;;;6.63;;
9142;SDS011;54072;47.410;8.446;2023-05-27T13:22:41;7.40;;;6.43;;
9142;SDS011;54072;47.410;8.446;2023-05-27T13:25:09;7.53;;;6.82;;
9142;SDS011;54072;47.410;8.446;2023-05-27T13:27:37;7.93;;;6.85;;
9142;SDS011;54072;47.410;8.446;2023-05-27T13:30:08;8.90;;;6.18;;
9142;SDS011;54072;47.410;8.446;2023-05-27T13:32:37;10.10;;;6.25;;
9142;SDS011;54072;47.410;8.446;2023-05-27T13:35:05;6.93;;;6.22;;
9142;SDS011;54072;47.410;8.446;2023-05-27T13:37:33;7.75;;;6.18;;
9142;SDS011;54072;47.410;8.446;2023-05-27T13:40:00;7.32;;;6.20;;
9142;SDS011;54072;47.410;8.446;2023-05-27T13:42:28;7.95;;;6.22;;
9142;SDS011;54072;47.410;8.446;2023-05-27T13:44:56;10.85;;;6.78;;
9142;SDS011;54072;47.410;8.446;2023-05-27T13:47:23;10.75;;;6.78;;
9142;SDS011;54072;47.410;8.446;2023-05-27T13:49:52;7.70;;;6.32;;
9142;SDS011;54072;47.410;8.446;2023-05-27T13:52:19;7.07;;;6.38;;
9142;SDS011;54072;47.410;8.446;2023-05-27T13:54:47;6.90;;;6.30;;
9142;SDS011;54072;47.410;8.446;2023-05-27T13:57:15;8.95;;;6.70;;
9142;SDS011;54072;47.410;8.446;2023-05-27T13:59:42;7.20;;;6.50;;
9142;SDS011;54072;47.410;8.446;2023-05-27T14:02:10;8.75;;;6.53;;
9142;SDS011;54072;47.410;8.446;2023-05-27T14:04:38;6.63;;;6.03;;
9142;SDS011;54072;47.410;8.446;2023-05-27T14:07:07;6.80;;;6.10;;
9142;SDS011;54072;47.410;8.446;2023-05-27T14:09:34;8.98;;;6.07;;
9142;SDS011;54072;47.410;8.446;2023-05-27T14:12:02;7.00;;;6.35;;
9142;SDS011;54072;47.410;8.446;2023-05-27T14:14:29;6.97;;;6.15;;
9142;SDS011;54072;47.410;8.446;2023-05-27T14:16:57;7.13;;;6.05;;
9142;SDS011;54072;47.410;8.446;2023-05-27T14:19:25;6.78;;;6.03;;
9142;SDS011;54072;47.410;8.446;2023-05-27T14:21:52;9.88;;;6.40;;
9142;SDS011;54072;47.410;8.446;2023-05-27T14:24:21;6.45;;;5.85;;
9142;SDS011;54072;47.410;8.446;2023-05-27T14:26:49;6.85;;;6.07;;
9142;SDS011;54072;47.410;8.446;2023-05-27T14:29:16;7.25;;;5.75;;
9142;SDS011;54072;47.410;8.446;2023-05-27T14:31:44;6.95;;;5.72;;
9142;SDS011;54072;47.410;8.446;2023-05-27T14:34:11;7.65;;;5.97;;
9142;SDS011;54072;47.410;8.446;2023-05-27T14:36:39;6.22;;;5.63;;
9142;SDS011;54072;47.410;8.446;2023-05-27T14:39:06;6.50;;;5.90;;
9142;SDS011;54072;47.410;8.446;2023-05-27T14:41:35;8.50;;;6.00;;
9142;SDS011;54072;47.410;8.446;2023-05-27T14:44:03;6.85;;;5.70;;
9142;SDS011;54072;47.410;8.446;2023-05-27T14:46:31;7.60;;;5.90;;
9142;SDS011;54072;47.410;8.446;2023-05-27T14:48:58;8.68;;;6.07;;
9142;SDS011;54072;47.410;8.446;2023-05-27T14:51:27;7.25;;;6.30;;
9142;SDS011;54072;47.410;8.446;2023-05-27T14:53:54;6.30;;;5.70;;
9142;SDS011;54072;47.410;8.446;2023-05-27T14:56:22;6.50;;;5.90;;
9142;SDS011;54072;47.410;8.446;2023-05-27T14:58:51;6.80;;;6.10;;
9142;SDS011;54072;47.410;8.446;2023-05-27T15:01:18;6.70;;;6.10;;
9142;SDS011;54072;47.410;8.446;2023-05-27T15:03:46;6.72;;;6.10;;